createdAt,value
2024-05-09T00:00:37.915Z,44.07
2024-05-09T00:03:07.476Z,43.49
2024-05-09T00:05:37.727Z,43.00
2024-05-09T00:08:05.608Z,43.14
2024-05-09T00:10:37.201Z,42.69
2024-05-09T00:13:06.791Z,42.93
2024-05-09T00:15:34.994Z,43.05
2024-05-09T00:18:03.393Z,42.63
2024-05-09T00:20:38.594Z,42.47
2024-05-09T00:23:12.624Z,42.80
2024-05-09T00:25:42.624Z,43.14
2024-05-09T00:28:10.206Z,43.52
2024-05-09T00:30:37.716Z,43.39
2024-05-09T00:33:07.003Z,43.29
2024-05-09T00:35:36.052Z,43.27
2024-05-09T00:38:03.868Z,43.24
2024-05-09T00:40:40.144Z,45.12
2024-05-09T00:43:09.582Z,44.00
2024-05-09T00:45:36.864Z,43.33
2024-05-09T00:48:07.793Z,44.04
2024-05-09T00:50:39.794Z,43.49
2024-05-09T00:53:11.086Z,51.62
2024-05-09T00:55:41.829Z,50.23
2024-05-09T00:58:14.145Z,51.14
2024-05-09T01:00:41.939Z,46.72
2024-05-09T01:03:11.300Z,45.30
2024-05-09T01:05:40.791Z,46.53
2024-05-09T01:08:10.815Z,46.65
2024-05-09T01:10:43.931Z,45.25
2024-05-09T01:13:12.574Z,46.65
2024-05-09T01:15:39.691Z,44.17
2024-05-09T01:18:10.529Z,44.27
2024-05-09T01:20:42.441Z,41.69
2024-05-09T01:23:16.067Z,44.67
2024-05-09T01:25:45.034Z,43.67
2024-05-09T01:28:12.716Z,44.11
2024-05-09T01:30:40.010Z,43.95
2024-05-09T01:33:09.452Z,44.89
2024-05-09T01:35:38.427Z,43.61
2024-05-09T01:38:05.637Z,43.29
2024-05-09T01:40:38.840Z,43.57
2024-05-09T01:43:07.868Z,43.10
2024-05-09T01:45:35.145Z,42.00
2024-05-09T01:48:02.965Z,42.22
2024-05-09T01:50:38.139Z,42.67
2024-05-09T01:53:08.928Z,43.17
2024-05-09T01:55:38.832Z,42.34
2024-05-09T01:58:06.099Z,43.26
2024-05-09T02:00:38.603Z,42.19
2024-05-09T02:03:09.314Z,43.02
2024-05-09T02:05:36.971Z,42.72
2024-05-09T02:08:04.841Z,41.54
2024-05-09T02:10:33.151Z,42.65
2024-05-09T02:13:03.334Z,42.79
2024-05-09T02:15:30.370Z,43.01
2024-05-09T02:17:57.652Z,43.17
2024-05-09T02:20:33.526Z,43.13
2024-05-09T02:23:04.858Z,42.44
2024-05-09T02:25:32.916Z,42.05
2024-05-09T02:28:03.150Z,41.99
2024-05-09T02:30:38.426Z,42.29
2024-05-09T02:33:09.570Z,42.29
2024-05-09T02:35:38.156Z,42.49
2024-05-09T02:38:05.494Z,42.31
2024-05-09T02:40:37.550Z,41.20
2024-05-09T02:43:12.777Z,41.60
2024-05-09T02:45:40.790Z,42.51
2024-05-09T02:48:11.195Z,42.77
2024-05-09T02:50:40.128Z,41.98
2024-05-09T02:53:07.879Z,42.34
2024-05-09T02:55:35.228Z,42.73
2024-05-09T02:58:02.336Z,41.69
2024-05-09T03:00:38.430Z,42.96
2024-05-09T03:03:10.162Z,42.72
2024-05-09T03:05:39.844Z,42.10
2024-05-09T03:08:07.768Z,42.54
2024-05-09T03:10:37.131Z,42.58
2024-05-09T03:13:06.632Z,42.33
2024-05-09T03:15:37.159Z,42.34
2024-05-09T03:18:05.922Z,42.26
2024-05-09T03:20:35.455Z,41.91
2024-05-09T03:23:04.318Z,42.92
2024-05-09T03:25:31.729Z,42.49
2024-05-09T03:27:58.828Z,42.95
2024-05-09T03:30:35.620Z,42.75
2024-05-09T03:33:14.156Z,42.22
2024-05-09T03:35:42.898Z,42.00
2024-05-09T03:38:10.305Z,42.04
2024-05-09T03:40:44.118Z,41.23
2024-05-09T03:43:11.402Z,42.30
2024-05-09T03:45:38.546Z,41.59
2024-05-09T03:48:06.665Z,41.54
2024-05-09T03:50:37.326Z,42.33
2024-05-09T03:53:05.461Z,41.28
2024-05-09T03:55:32.758Z,41.58
2024-05-09T03:57:59.919Z,41.82
2024-05-09T04:00:35.468Z,41.53
2024-05-09T04:03:08.269Z,42.20
2024-05-09T04:05:42.177Z,41.78
2024-05-09T04:08:10.878Z,41.70
2024-05-09T04:10:38.331Z,41.61
2024-05-09T04:13:05.737Z,41.46
2024-05-09T04:15:33.103Z,42.36
2024-05-09T04:18:01.107Z,41.47
2024-05-09T04:20:36.712Z,42.10
2024-05-09T04:23:12.607Z,42.23
2024-05-09T04:25:41.995Z,42.48
2024-05-09T04:28:09.113Z,42.57
2024-05-09T04:30:39.428Z,42.43
2024-05-09T04:33:11.476Z,42.26
2024-05-09T04:35:40.747Z,42.28
2024-05-09T04:38:11.837Z,42.67
2024-05-09T04:40:39.173Z,41.97
2024-05-09T04:43:07.546Z,42.51
2024-05-09T04:45:35.639Z,42.10
2024-05-09T04:48:03.491Z,42.28
2024-05-09T04:50:36.783Z,41.85
2024-05-09T04:53:08.173Z,41.71
2024-05-09T04:55:40.572Z,42.35
2024-05-09T04:58:08.430Z,41.89
2024-05-09T05:00:37.699Z,42.16
2024-05-09T05:03:08.042Z,41.68
2024-05-09T05:05:38.187Z,42.08
2024-05-09T05:08:06.160Z,41.13
2024-05-09T05:10:36.321Z,41.26
2024-05-09T05:13:06.731Z,42.22
2024-05-09T05:15:33.911Z,42.19
2024-05-09T05:18:01.271Z,41.37
2024-05-09T05:20:33.516Z,42.22
2024-05-09T05:23:01.485Z,41.25
2024-05-09T05:25:28.572Z,41.22
2024-05-09T05:27:55.748Z,41.48
2024-05-09T05:30:29.277Z,41.40
2024-05-09T05:33:01.674Z,40.43
2024-05-09T05:35:28.982Z,40.57
2024-05-09T05:37:56.133Z,39.93
2024-05-09T05:40:32.192Z,40.59
2024-05-09T05:43:03.669Z,40.77
2024-05-09T05:45:33.552Z,39.77
2024-05-09T05:48:05.504Z,40.04
2024-05-09T05:50:36.650Z,40.28
2024-05-09T05:53:07.974Z,39.90
2024-05-09T05:55:35.828Z,38.56
2024-05-09T05:58:03.177Z,39.36
2024-05-09T06:00:38.919Z,39.87
2024-05-09T06:03:08.856Z,39.03
2024-05-09T06:05:37.625Z,39.45
2024-05-09T06:08:05.797Z,38.48
2024-05-09T06:10:38.305Z,39.69
2024-05-09T06:13:07.958Z,40.07
2024-05-09T06:15:37.874Z,40.36
2024-05-09T06:18:06.129Z,39.77
2024-05-09T06:20:36.567Z,39.60
2024-05-09T06:23:05.910Z,39.18
2024-05-09T06:25:33.576Z,39.88
2024-05-09T06:28:01.569Z,40.04
2024-05-09T06:30:37.230Z,38.57
2024-05-09T06:33:13.066Z,39.24
2024-05-09T06:35:42.525Z,39.29
2024-05-09T06:38:09.974Z,39.15
2024-05-09T06:40:40.812Z,39.28
2024-05-09T06:43:11.814Z,39.08
2024-05-09T06:45:38.945Z,38.40
2024-05-09T06:48:10.162Z,37.59
2024-05-09T06:50:39.359Z,36.71
2024-05-09T06:53:07.529Z,36.35
2024-05-09T06:55:34.851Z,36.89
2024-05-09T06:58:02.229Z,36.34
2024-05-09T07:00:35.825Z,35.83
2024-05-09T07:03:12.928Z,35.44
2024-05-09T07:05:42.413Z,35.69
2024-05-09T07:08:10.023Z,35.25
2024-05-09T07:10:37.723Z,35.38
2024-05-09T07:13:08.422Z,35.32
2024-05-09T07:15:35.705Z,33.37
2024-05-09T07:18:11.742Z,35.59
2024-05-09T07:20:40.203Z,33.71
2024-05-09T07:23:08.907Z,35.23
2024-05-09T07:25:36.120Z,34.75
2024-05-09T07:28:03.376Z,33.25
2024-05-09T07:30:33.912Z,34.19
2024-05-09T07:33:02.904Z,33.68
2024-05-09T07:35:33.376Z,33.14
2024-05-09T07:38:00.739Z,32.61
2024-05-09T07:40:33.393Z,33.65
2024-05-09T07:43:03.839Z,31.61
2024-05-09T07:45:47.875Z,33.77
2024-05-09T07:52:37.644Z,33.37
2024-05-09T07:53:45.397Z,33.97
2024-05-09T07:56:16.313Z,33.23
2024-05-09T07:58:44.042Z,33.75
2024-05-09T08:01:11.256Z,36.92
2024-05-09T08:03:38.640Z,32.53
2024-05-09T08:06:08.567Z,33.44
2024-05-09T08:08:35.702Z,34.88
2024-05-09T08:11:03.300Z,37.66
2024-05-09T08:13:30.373Z,36.66
2024-05-09T08:15:57.591Z,33.65
2024-05-09T08:18:25.004Z,37.79
2024-05-09T08:20:52.129Z,34.26
2024-05-09T08:23:22.012Z,36.68
2024-05-09T08:25:49.161Z,35.50
2024-05-09T08:28:16.669Z,34.66
2024-05-09T08:30:44.200Z,32.64
2024-05-09T08:33:11.594Z,32.04
2024-05-09T08:35:38.769Z,32.18
2024-05-09T08:38:07.525Z,34.93
2024-05-09T08:40:38.287Z,32.65
2024-05-09T08:43:09.474Z,33.62
2024-05-09T08:45:39.540Z,32.32
2024-05-09T08:48:08.672Z,31.57
2024-05-09T08:50:40.372Z,35.14
2024-05-09T08:53:08.734Z,33.98
2024-05-09T08:55:42.035Z,32.72
2024-05-09T08:58:16.041Z,31.65
2024-05-09T09:00:45.185Z,32.08
2024-05-09T09:03:17.439Z,31.47
2024-05-09T09:05:53.074Z,30.78
2024-05-09T09:08:21.208Z,32.21
2024-05-09T09:10:52.251Z,33.33
2024-05-09T09:13:19.376Z,31.73
2024-05-09T09:15:47.884Z,35.03
2024-05-09T09:18:16.231Z,34.31
2024-05-09T09:20:44.297Z,34.36
2024-05-09T09:23:11.573Z,32.50
2024-05-09T09:25:39.687Z,32.84
2024-05-09T09:28:10.358Z,32.40
2024-05-09T09:30:39.393Z,33.03
2024-05-09T09:33:08.625Z,33.91
2024-05-09T09:35:36.524Z,33.77
2024-05-09T09:38:04.853Z,34.32
2024-05-09T09:40:37.577Z,35.01
2024-05-09T09:43:19.703Z,34.87
2024-05-09T09:45:51.032Z,35.26
2024-05-09T09:48:21.286Z,34.97
2024-05-09T09:50:51.211Z,34.72
2024-05-09T09:53:18.807Z,34.73
2024-05-09T09:55:46.605Z,35.13
2024-05-09T09:58:18.067Z,34.81
2024-05-09T10:00:45.946Z,35.21
2024-05-09T10:03:13.487Z,35.59
2024-05-09T10:05:45.038Z,35.40
2024-05-09T10:08:17.855Z,35.13
2024-05-09T10:10:47.120Z,35.09
2024-05-09T10:13:17.289Z,34.61
2024-05-09T10:15:44.812Z,34.88
2024-05-09T10:18:12.316Z,34.00
2024-05-09T10:20:43.278Z,33.58
2024-05-09T10:23:27.396Z,32.96
2024-05-09T10:25:58.968Z,33.31
2024-05-09T10:28:30.293Z,33.27
2024-05-09T10:31:08.386Z,30.62
2024-05-09T10:33:40.223Z,31.46
2024-05-09T10:36:13.622Z,33.23
2024-05-09T10:38:41.460Z,33.15
2024-05-09T10:41:09.038Z,34.80
2024-05-09T10:43:41.638Z,34.90
2024-05-09T10:46:10.508Z,31.63
2024-05-09T10:48:38.675Z,34.28
2024-05-09T10:51:06.097Z,33.47
2024-05-09T10:53:40.794Z,32.54
2024-05-09T10:56:08.503Z,33.60
2024-05-09T10:58:35.706Z,32.27
2024-05-09T11:01:07.208Z,34.02
2024-05-09T11:03:35.913Z,33.38
2024-05-09T11:06:03.986Z,34.90
2024-05-09T11:08:32.209Z,34.77
2024-05-09T11:11:00.262Z,34.55
2024-05-09T11:13:28.312Z,34.96
2024-05-09T11:15:55.565Z,34.61
2024-05-09T11:18:27.889Z,35.19
2024-05-09T11:20:57.811Z,34.35
2024-05-09T11:23:27.862Z,33.88
2024-05-09T11:25:56.645Z,34.24
2024-05-09T11:28:25.960Z,30.91
2024-05-09T11:31:05.648Z,34.29
2024-05-09T11:33:36.963Z,32.86
2024-05-09T11:36:05.248Z,34.83
2024-05-09T11:38:32.407Z,34.71
2024-05-09T11:40:59.825Z,33.92
2024-05-09T11:43:27.037Z,31.72
2024-05-09T11:45:54.733Z,32.60
2024-05-09T11:48:22.137Z,33.19
2024-05-09T11:50:54.320Z,32.50
2024-05-09T11:53:21.592Z,35.25
2024-05-09T11:55:48.617Z,34.73
2024-05-09T11:58:15.908Z,34.21
2024-05-09T12:00:43.286Z,31.23
2024-05-09T12:03:10.660Z,31.65
2024-05-09T12:05:37.908Z,35.06
2024-05-09T12:08:08.391Z,33.13
2024-05-09T12:10:36.814Z,33.43
2024-05-09T12:13:06.702Z,34.44
2024-05-09T12:15:35.887Z,32.80
2024-05-09T12:18:04.380Z,34.36
2024-05-09T12:20:37.039Z,34.01
2024-05-09T12:23:10.445Z,35.26
2024-05-09T12:25:39.073Z,34.24
2024-05-09T12:28:07.543Z,33.72
2024-05-09T12:30:38.624Z,35.38
2024-05-09T12:33:08.428Z,34.15
2024-05-09T12:35:35.840Z,33.70
2024-05-09T12:38:03.307Z,33.81
2024-05-09T12:40:37.024Z,32.86
2024-05-09T12:43:07.236Z,33.66
2024-05-09T12:45:34.981Z,32.22
2024-05-09T12:48:02.492Z,35.47
2024-05-09T12:50:33.039Z,34.23
2024-05-09T12:53:02.463Z,33.78
2024-05-09T12:55:41.448Z,35.30
2024-05-09T12:58:16.044Z,33.75
2024-05-09T13:00:43.629Z,33.98
2024-05-09T13:03:11.023Z,35.04
2024-05-09T13:05:38.359Z,33.48
2024-05-09T13:08:07.194Z,36.07
2024-05-09T13:10:37.174Z,35.29
2024-05-09T13:13:05.183Z,34.83
2024-05-09T13:15:33.882Z,33.12
2024-05-09T13:18:03.190Z,33.66
2024-05-09T13:20:34.138Z,35.47
2024-05-09T13:23:04.145Z,35.29
2024-05-09T13:25:31.541Z,33.30
2024-05-09T13:28:01.645Z,33.75
2024-05-09T13:30:37.328Z,33.62
2024-05-09T13:33:07.619Z,34.63
2024-05-09T13:35:35.793Z,34.64
2024-05-09T13:38:04.848Z,33.49
2024-05-09T13:40:35.044Z,32.77
2024-05-09T13:43:06.291Z,33.57
2024-05-09T13:45:34.000Z,32.28
2024-05-09T13:48:01.959Z,33.50
2024-05-09T13:50:34.626Z,33.76
2024-05-09T13:53:03.832Z,33.45
2024-05-09T13:55:30.993Z,33.74
2024-05-09T13:57:58.181Z,32.82
2024-05-09T14:00:41.665Z,34.62
2024-05-09T14:03:14.675Z,32.14
2024-05-09T14:05:42.161Z,33.86
2024-05-09T14:08:09.959Z,32.87
2024-05-09T14:10:37.621Z,34.71
2024-05-09T14:13:05.287Z,34.93
2024-05-09T14:15:35.208Z,34.85
2024-05-09T14:18:02.782Z,34.38
2024-05-09T14:20:32.061Z,33.05
2024-05-09T14:23:00.218Z,33.91
2024-05-09T14:25:27.893Z,34.39
2024-05-09T14:27:55.368Z,34.58
2024-05-09T14:30:30.466Z,33.32
2024-05-09T14:33:07.696Z,33.76
2024-05-09T14:35:35.859Z,35.36
2024-05-09T14:38:03.449Z,34.28
2024-05-09T14:40:39.718Z,34.75
2024-05-09T14:43:11.098Z,34.59
2024-05-09T14:45:38.379Z,35.16
2024-05-09T14:48:09.339Z,33.77
2024-05-09T14:50:39.405Z,35.24
2024-05-09T14:53:08.484Z,33.55
2024-05-09T14:55:37.255Z,34.76
2024-05-09T14:58:06.720Z,34.83
2024-05-09T15:00:36.259Z,33.73
2024-05-09T15:03:07.678Z,33.61
2024-05-09T15:05:34.751Z,35.36
2024-05-09T15:08:01.910Z,35.08
2024-05-09T15:10:34.722Z,32.91
2024-05-09T15:13:04.222Z,33.97
2024-05-09T15:15:31.989Z,34.00
2024-05-09T15:17:59.979Z,32.94
2024-05-09T15:20:34.866Z,34.42
2024-05-09T15:23:06.440Z,34.33
2024-05-09T15:25:35.330Z,33.46
2024-05-09T15:28:03.603Z,33.74
2024-05-09T15:30:33.292Z,33.51
2024-05-09T15:33:01.912Z,33.05
2024-05-09T15:35:31.919Z,33.23
2024-05-09T15:38:00.346Z,35.15
2024-05-09T15:40:35.926Z,35.79
2024-05-09T15:43:08.148Z,34.68
2024-05-09T15:45:36.139Z,34.78
2024-05-09T15:48:04.338Z,33.67
2024-05-09T15:50:38.826Z,34.02
2024-05-09T15:53:09.724Z,33.88
2024-05-09T15:55:37.690Z,33.26
2024-05-09T15:58:06.416Z,35.42
2024-05-09T16:00:39.139Z,34.69
2024-05-09T16:03:10.259Z,36.41
2024-05-09T16:05:41.030Z,36.00
2024-05-09T16:08:09.190Z,35.75
2024-05-09T16:10:37.070Z,34.59
2024-05-09T16:13:05.438Z,34.81
2024-05-09T16:15:33.122Z,34.08
2024-05-09T16:18:00.905Z,34.30
2024-05-09T16:20:38.004Z,35.04
2024-05-09T16:23:10.899Z,34.39
2024-05-09T16:25:39.022Z,34.29
2024-05-09T16:28:09.144Z,35.00
2024-05-09T16:30:37.982Z,33.55
2024-05-09T16:33:06.246Z,35.59
2024-05-09T16:35:33.635Z,35.55
2024-05-09T16:38:02.195Z,36.34
2024-05-09T16:40:38.265Z,36.96
2024-05-09T16:43:09.061Z,35.71
2024-05-09T16:45:36.960Z,34.67
2024-05-09T16:48:05.548Z,33.81
2024-05-09T16:50:34.853Z,33.62
2024-05-09T16:53:03.854Z,33.81
2024-05-09T16:55:34.594Z,32.87
2024-05-09T16:58:02.482Z,33.08
2024-05-09T17:00:37.850Z,32.79
2024-05-09T17:03:10.266Z,32.99
2024-05-09T17:05:38.722Z,33.01
2024-05-09T17:08:07.234Z,32.97
2024-05-09T17:10:37.399Z,33.10
2024-05-09T17:13:06.766Z,34.00
2024-05-09T17:15:35.780Z,33.17
2024-05-09T17:18:04.395Z,33.47
2024-05-09T17:20:35.195Z,33.33
2024-05-09T17:23:06.150Z,33.13
2024-05-09T17:25:36.382Z,33.03
2024-05-09T17:28:03.745Z,33.25
2024-05-09T17:30:35.557Z,33.01
2024-05-09T17:33:07.518Z,33.65
2024-05-09T17:35:35.391Z,33.79
2024-05-09T17:38:02.813Z,34.56
2024-05-09T17:40:34.845Z,33.41
2024-05-09T17:43:08.858Z,33.62
2024-05-09T17:45:37.528Z,33.49
2024-05-09T17:48:05.636Z,33.82
2024-05-09T17:50:36.073Z,33.44
2024-05-09T17:53:05.727Z,33.61
2024-05-09T17:55:33.306Z,33.33
2024-05-09T17:58:00.927Z,33.47
2024-05-09T18:00:37.910Z,34.18
2024-05-09T18:03:09.155Z,33.99
2024-05-09T18:05:37.606Z,33.51
2024-05-09T18:08:06.330Z,33.40
2024-05-09T18:10:37.742Z,33.42
2024-05-09T18:13:07.935Z,33.69
2024-05-09T18:15:38.419Z,33.81
2024-05-09T18:18:06.970Z,33.67
2024-05-09T18:20:41.957Z,33.35
2024-05-09T18:23:14.196Z,33.58
2024-05-09T18:25:42.307Z,33.53
2024-05-09T18:28:10.085Z,33.92
2024-05-09T18:30:40.555Z,33.70
2024-05-09T18:33:11.211Z,33.97
2024-05-09T18:35:38.949Z,33.78
2024-05-09T18:38:06.289Z,33.92
2024-05-09T18:40:36.619Z,33.67
2024-05-09T18:43:07.827Z,34.24
2024-05-09T18:45:36.835Z,34.16
2024-05-09T18:48:09.197Z,34.45
2024-05-09T18:50:39.500Z,34.28
2024-05-09T18:53:08.627Z,34.49
2024-05-09T18:55:36.122Z,34.47
2024-05-09T18:58:04.233Z,34.61
2024-05-09T19:00:36.073Z,35.11
2024-05-09T19:03:11.776Z,34.55
2024-05-09T19:05:41.814Z,35.13
2024-05-09T19:08:10.149Z,35.66
2024-05-09T19:10:38.986Z,35.15
2024-05-09T19:13:11.105Z,35.53
2024-05-09T19:15:41.108Z,35.57
2024-05-09T19:18:12.605Z,35.21
2024-05-09T19:20:40.424Z,35.17
2024-05-09T19:23:07.865Z,35.16
2024-05-09T19:25:36.157Z,35.22
2024-05-09T19:28:04.013Z,35.33
2024-05-09T19:30:38.594Z,35.58
2024-05-09T19:33:12.815Z,35.83
2024-05-09T19:35:41.106Z,35.76
2024-05-09T19:38:08.444Z,35.59
2024-05-09T19:40:36.161Z,36.06
2024-05-09T19:43:05.368Z,36.37
2024-05-09T19:45:34.564Z,35.91
2024-05-09T19:48:03.126Z,36.63
2024-05-09T19:50:40.953Z,36.18
2024-05-09T19:53:12.098Z,36.05
2024-05-09T19:55:39.625Z,36.12
2024-05-09T19:58:07.918Z,36.14
2024-05-09T20:00:38.483Z,36.33
2024-05-09T20:03:08.514Z,35.96
2024-05-09T20:05:39.335Z,36.06
2024-05-09T20:08:07.684Z,36.19
2024-05-09T20:10:36.303Z,36.07
2024-05-09T20:13:06.899Z,36.47
2024-05-09T20:15:35.803Z,36.49
2024-05-09T20:18:03.821Z,36.36
2024-05-09T20:20:37.132Z,37.05
2024-05-09T20:23:11.617Z,36.91
2024-05-09T20:25:38.948Z,36.73
2024-05-09T20:28:06.663Z,36.77
2024-05-09T20:30:35.296Z,36.75
2024-05-09T20:33:05.224Z,36.60
2024-05-09T20:35:33.942Z,36.79
2024-05-09T20:38:02.533Z,36.67
2024-05-09T20:40:37.465Z,36.74
2024-05-09T20:43:07.704Z,36.70
2024-05-09T20:45:35.394Z,36.91
2024-05-09T20:48:03.067Z,36.77
2024-05-09T20:50:37.485Z,37.11
2024-05-09T20:53:08.449Z,37.01
2024-05-09T20:55:38.393Z,36.99
2024-05-09T20:58:05.777Z,36.96
2024-05-09T21:00:39.257Z,37.11
2024-05-09T21:03:11.379Z,36.92
2024-05-09T21:05:39.189Z,37.11
2024-05-09T21:08:07.244Z,37.34
2024-05-09T21:10:37.904Z,37.13
2024-05-09T21:13:06.788Z,37.05
2024-05-09T21:15:34.676Z,37.44
2024-05-09T21:18:02.236Z,37.20
2024-05-09T21:20:31.866Z,37.36
2024-05-09T21:23:00.592Z,37.50
2024-05-09T21:25:27.891Z,37.58
2024-05-09T21:27:58.188Z,37.86
2024-05-09T21:30:32.757Z,37.76
2024-05-09T21:33:09.635Z,37.91
2024-05-09T21:35:38.243Z,37.59
2024-05-09T21:38:05.580Z,37.33
2024-05-09T21:40:35.206Z,37.78
2024-05-09T21:43:07.921Z,38.14
2024-05-09T21:45:36.117Z,37.80
2024-05-09T21:48:03.790Z,37.84
2024-05-09T21:50:37.161Z,37.62
2024-05-09T21:53:07.963Z,38.07
2024-05-09T21:55:35.320Z,37.54
2024-05-09T21:58:03.200Z,37.64
2024-05-09T22:00:37.466Z,38.24
2024-05-09T22:03:07.966Z,38.10
2024-05-09T22:05:36.431Z,38.13
2024-05-09T22:08:04.545Z,38.44
2024-05-09T22:10:34.914Z,38.51
2024-05-09T22:13:04.287Z,38.17
2024-05-09T22:15:37.372Z,39.04
2024-05-09T22:18:06.589Z,38.63
2024-05-09T22:20:38.433Z,38.63
2024-05-09T22:23:07.420Z,38.83
2024-05-09T22:25:34.960Z,38.98
2024-05-09T22:28:03.423Z,38.77
2024-05-09T22:30:36.858Z,38.93
2024-05-09T22:33:11.390Z,39.38
2024-05-09T22:35:39.616Z,38.67
2024-05-09T22:38:06.933Z,38.74
2024-05-09T22:40:44.935Z,38.69
2024-05-09T22:43:18.023Z,39.26
2024-05-09T22:45:45.569Z,39.67
2024-05-09T22:48:15.732Z,39.91
2024-05-09T22:50:43.099Z,39.68
2024-05-09T22:53:10.239Z,40.06
2024-05-09T22:55:37.400Z,40.46
2024-05-09T22:58:04.882Z,40.93
2024-05-09T23:00:33.080Z,40.82
2024-05-09T23:03:01.654Z,40.87
2024-05-09T23:05:32.694Z,40.75
2024-05-09T23:08:00.772Z,41.78
2024-05-09T23:10:34.484Z,41.13
2024-05-09T23:13:04.744Z,41.22
2024-05-09T23:15:32.030Z,41.33
2024-05-09T23:17:59.833Z,41.68
2024-05-09T23:20:36.016Z,41.84
2024-05-09T23:23:11.115Z,41.75
2024-05-09T23:25:40.136Z,41.84
2024-05-09T23:28:07.587Z,41.86
2024-05-09T23:30:38.752Z,42.80
2024-05-09T23:33:08.452Z,42.26
2024-05-09T23:35:35.943Z,42.20
2024-05-09T23:38:03.221Z,42.50
2024-05-09T23:43:03.470Z,42.34
2024-05-09T23:45:30.752Z,42.75
2024-05-09T23:47:57.967Z,42.60
2024-05-09T23:50:33.255Z,42.62
2024-05-09T23:53:03.602Z,43.13
2024-05-09T23:55:33.472Z,42.94
2024-05-09T23:58:00.964Z,42.63
